Terminal Aerodrome Forecast
Issued by NWS

Home | Current Version | Previous Version | Text Only | Print | Product List | Glossary On
Versions: 1 2 3 4 5 6 7 8 9 10 11 12
000
FTUS41 KBTV 010531
TAFMSS
TAF
KMSS 010531Z 0106/0206 05005KT P6SM OVC200
     FM010800 06006KT P6SM OVC070
     FM011200 07007KT P6SM VCSH OVC040
     FM011400 08008KT 5SM -RA BR SCT015 OVC030
     FM011800 07010KT 3SM -RA BR SCT008 OVC015
     FM012100 05011KT 2SM -RA BR SCT003 OVC008=

USA.gov is the U.S. government's official web portal to all federal, state and local government web resources and services.